sensor_id;sensor_type;location;lat;lon;timestamp;temperature;humidity
21811;DHT22;11067;48.788;9.208;2023-05-07T00:00:19;15.10;99.90
21811;DHT22;11067;48.788;9.208;2023-05-07T00:02:45;15.00;99.90
21811;DHT22;11067;48.788;9.208;2023-05-07T00:05:11;15.00;99.90
21811;DHT22;11067;48.788;9.208;2023-05-07T00:07:36;15.00;99.90
21811;DHT22;11067;48.788;9.208;2023-05-07T00:10:03;15.00;99.90
21811;DHT22;11067;48.788;9.208;2023-05-07T00:12:28;15.00;99.90
21811;DHT22;11067;48.788;9.208;2023-05-07T00:14:57;15.00;99.90
21811;DHT22;11067;48.788;9.208;2023-05-07T00:17:22;15.00;99.90
21811;DHT22;11067;48.788;9.208;2023-05-07T00:19:48;15.00;99.90
21811;DHT22;11067;48.788;9.208;2023-05-07T00:22:14;15.00;99.90
21811;DHT22;11067;48.788;9.208;2023-05-07T00:24:39;15.00;99.90
21811;DHT22;11067;48.788;9.208;2023-05-07T00:27:05;14.90;99.90
21811;DHT22;11067;48.788;9.208;2023-05-07T00:29:31;14.90;99.90
21811;DHT22;11067;48.788;9.208;2023-05-07T00:31:56;14.90;99.90
21811;DHT22;11067;48.788;9.208;2023-05-07T00:34:22;14.80;99.90
21811;DHT22;11067;48.788;9.208;2023-05-07T00:36:48;14.80;99.90
21811;DHT22;11067;48.788;9.208;2023-05-07T00:39:13;14.70;99.90
21811;DHT22;11067;48.788;9.208;2023-05-07T00:41:39;14.70;99.90
21811;DHT22;11067;48.788;9.208;2023-05-07T00:44:04;14.70;99.90
21811;DHT22;11067;48.788;9.208;2023-05-07T00:46:30;14.70;99.90
21811;DHT22;11067;48.788;9.208;2023-05-07T00:48:57;14.60;99.90
21811;DHT22;11067;48.788;9.208;2023-05-07T00:51:24;14.60;99.90
21811;DHT22;11067;48.788;9.208;2023-05-07T00:53:50;14.60;99.90
21811;DHT22;11067;48.788;9.208;2023-05-07T00:56:16;14.60;99.90
21811;DHT22;11067;48.788;9.208;2023-05-07T00:58:42;14.60;99.90
21811;DHT22;11067;48.788;9.208;2023-05-07T01:01:08;14.60;99.90
21811;DHT22;11067;48.788;9.208;2023-05-07T01:03:33;14.60;99.90
21811;DHT22;11067;48.788;9.208;2023-05-07T01:05:59;14.60;99.90
21811;DHT22;11067;48.788;9.208;2023-05-07T01:08:26;14.60;99.90
21811;DHT22;11067;48.788;9.208;2023-05-07T01:10:54;14.50;99.90
21811;DHT22;11067;48.788;9.208;2023-05-07T01:13:20;14.40;99.90
21811;DHT22;11067;48.788;9.208;2023-05-07T01:15:46;14.40;99.90
21811;DHT22;11067;48.788;9.208;2023-05-07T01:18:11;14.40;99.90
21811;DHT22;11067;48.788;9.208;2023-05-07T01:20:37;14.40;99.90
21811;DHT22;11067;48.788;9.208;2023-05-07T01:23:03;14.40;99.90
21811;DHT22;11067;48.788;9.208;2023-05-07T01:25:29;14.30;99.90
21811;DHT22;11067;48.788;9.208;2023-05-07T01:27:55;14.30;99.90
21811;DHT22;11067;48.788;9.208;2023-05-07T01:30:21;14.30;99.90
21811;DHT22;11067;48.788;9.208;2023-05-07T01:33:09;14.30;99.90
21811;DHT22;11067;48.788;9.208;2023-05-07T01:35:38;14.20;99.90
21811;DHT22;11067;48.788;9.208;2023-05-07T01:38:05;14.10;99.90
21811;DHT22;11067;48.788;9.208;2023-05-07T01:40:32;14.10;99.90
21811;DHT22;11067;48.788;9.208;2023-05-07T01:42:57;14.10;99.90
21811;DHT22;11067;48.788;9.208;2023-05-07T01:45:24;14.10;99.90
21811;DHT22;11067;48.788;9.208;2023-05-07T01:47:50;14.00;99.90
21811;DHT22;11067;48.788;9.208;2023-05-07T01:50:17;14.00;99.90
21811;DHT22;11067;48.788;9.208;2023-05-07T01:52:43;14.00;99.90
21811;DHT22;11067;48.788;9.208;2023-05-07T01:55:09;14.10;99.90
21811;DHT22;11067;48.788;9.208;2023-05-07T01:57:35;14.00;99.90
21811;DHT22;11067;48.788;9.208;2023-05-07T02:00:01;14.00;99.90
21811;DHT22;11067;48.788;9.208;2023-05-07T02:02:28;14.00;99.90
21811;DHT22;11067;48.788;9.208;2023-05-07T02:04:53;14.00;99.90
21811;DHT22;11067;48.788;9.208;2023-05-07T02:07:19;14.00;99.90
21811;DHT22;11067;48.788;9.208;2023-05-07T02:09:44;14.00;99.90
21811;DHT22;11067;48.788;9.208;2023-05-07T02:12:10;13.90;99.90
21811;DHT22;11067;48.788;9.208;2023-05-07T02:14:36;13.90;99.90
21811;DHT22;11067;48.788;9.208;2023-05-07T02:17:01;13.90;99.90
21811;DHT22;11067;48.788;9.208;2023-05-07T02:19:27;13.90;99.90
21811;DHT22;11067;48.788;9.208;2023-05-07T02:21:52;13.90;99.90
21811;DHT22;11067;48.788;9.208;2023-05-07T02:24:18;13.80;99.90
21811;DHT22;11067;48.788;9.208;2023-05-07T02:26:43;13.80;99.90
21811;DHT22;11067;48.788;9.208;2023-05-07T02:29:09;13.80;99.90
21811;DHT22;11067;48.788;9.208;2023-05-07T02:31:34;13.70;99.90
21811;DHT22;11067;48.788;9.208;2023-05-07T02:34:00;13.70;99.90
21811;DHT22;11067;48.788;9.208;2023-05-07T02:36:26;13.60;99.90
21811;DHT22;11067;48.788;9.208;2023-05-07T02:38:52;13.60;99.90
21811;DHT22;11067;48.788;9.208;2023-05-07T02:41:17;13.60;99.90
21811;DHT22;11067;48.788;9.208;2023-05-07T02:43:43;13.50;99.90
21811;DHT22;11067;48.788;9.208;2023-05-07T02:46:09;13.40;99.90
21811;DHT22;11067;48.788;9.208;2023-05-07T02:48:35;13.40;99.90
21811;DHT22;11067;48.788;9.208;2023-05-07T02:51:01;13.40;99.90
21811;DHT22;11067;48.788;9.208;2023-05-07T02:53:27;13.30;99.90
21811;DHT22;11067;48.788;9.208;2023-05-07T02:55:57;13.50;99.90
21811;DHT22;11067;48.788;9.208;2023-05-07T02:58:23;13.50;99.90
21811;DHT22;11067;48.788;9.208;2023-05-07T03:00:49;13.40;99.90
21811;DHT22;11067;48.788;9.208;2023-05-07T03:03:15;13.40;99.90
21811;DHT22;11067;48.788;9.208;2023-05-07T03:05:40;13.40;99.90
21811;DHT22;11067;48.788;9.208;2023-05-07T03:08:06;13.30;99.90
21811;DHT22;11067;48.788;9.208;2023-05-07T03:10:32;13.20;99.90
21811;DHT22;11067;48.788;9.208;2023-05-07T03:12:57;13.20;99.90
21811;DHT22;11067;48.788;9.208;2023-05-07T03:15:23;13.10;99.90
21811;DHT22;11067;48.788;9.208;2023-05-07T03:17:48;13.10;99.90
21811;DHT22;11067;48.788;9.208;2023-05-07T03:20:14;13.00;99.90
21811;DHT22;11067;48.788;9.208;2023-05-07T03:22:40;13.10;99.90
21811;DHT22;11067;48.788;9.208;2023-05-07T03:25:06;13.10;99.90
21811;DHT22;11067;48.788;9.208;2023-05-07T03:27:32;13.10;99.90
21811;DHT22;11067;48.788;9.208;2023-05-07T03:29:57;13.00;99.90
21811;DHT22;11067;48.788;9.208;2023-05-07T03:32:23;13.00;99.90
21811;DHT22;11067;48.788;9.208;2023-05-07T03:34:48;13.00;99.90
21811;DHT22;11067;48.788;9.208;2023-05-07T03:37:14;13.00;99.90
21811;DHT22;11067;48.788;9.208;2023-05-07T03:39:39;12.90;99.90
21811;DHT22;11067;48.788;9.208;2023-05-07T03:42:05;12.90;99.90
21811;DHT22;11067;48.788;9.208;2023-05-07T03:44:30;12.80;99.90
21811;DHT22;11067;48.788;9.208;2023-05-07T03:46:56;12.80;99.90
21811;DHT22;11067;48.788;9.208;2023-05-07T03:49:21;12.80;99.90
21811;DHT22;11067;48.788;9.208;2023-05-07T03:51:47;12.70;99.90
21811;DHT22;11067;48.788;9.208;2023-05-07T03:54:13;12.70;99.90
21811;DHT22;11067;48.788;9.208;2023-05-07T03:56:38;12.70;99.90
21811;DHT22;11067;48.788;9.208;2023-05-07T03:59:04;12.70;99.90
21811;DHT22;11067;48.788;9.208;2023-05-07T04:01:29;12.70;99.90
21811;DHT22;11067;48.788;9.208;2023-05-07T04:03:55;12.70;99.90
21811;DHT22;11067;48.788;9.208;2023-05-07T04:06:21;12.80;99.90
21811;DHT22;11067;48.788;9.208;2023-05-07T04:08:46;12.90;99.90
21811;DHT22;11067;48.788;9.208;2023-05-07T04:11:14;12.90;99.90
21811;DHT22;11067;48.788;9.208;2023-05-07T04:13:39;12.90;99.90
21811;DHT22;11067;48.788;9.208;2023-05-07T04:16:05;12.90;99.90
21811;DHT22;11067;48.788;9.208;2023-05-07T04:18:31;12.80;99.90
21811;DHT22;11067;48.788;9.208;2023-05-07T04:20:57;12.90;99.90
21811;DHT22;11067;48.788;9.208;2023-05-07T04:23:22;12.90;99.90
21811;DHT22;11067;48.788;9.208;2023-05-07T04:25:48;13.00;99.90
21811;DHT22;11067;48.788;9.208;2023-05-07T04:28:13;13.00;99.90
21811;DHT22;11067;48.788;9.208;2023-05-07T04:30:39;13.00;99.90
21811;DHT22;11067;48.788;9.208;2023-05-07T04:33:05;13.10;99.90
21811;DHT22;11067;48.788;9.208;2023-05-07T04:35:32;13.20;99.90
21811;DHT22;11067;48.788;9.208;2023-05-07T04:37:57;13.20;99.90
21811;DHT22;11067;48.788;9.208;2023-05-07T04:40:23;13.20;99.90
21811;DHT22;11067;48.788;9.208;2023-05-07T04:42:48;13.10;99.90
21811;DHT22;11067;48.788;9.208;2023-05-07T04:45:14;13.30;99.90
21811;DHT22;11067;48.788;9.208;2023-05-07T04:47:40;13.40;99.90
21811;DHT22;11067;48.788;9.208;2023-05-07T04:50:06;13.80;99.90
21811;DHT22;11067;48.788;9.208;2023-05-07T04:52:33;14.00;99.90
21811;DHT22;11067;48.788;9.208;2023-05-07T04:55:00;14.00;99.90
21811;DHT22;11067;48.788;9.208;2023-05-07T04:57:26;13.80;99.90
21811;DHT22;11067;48.788;9.208;2023-05-07T04:59:52;13.80;99.90
21811;DHT22;11067;48.788;9.208;2023-05-07T05:02:17;13.60;99.90
21811;DHT22;11067;48.788;9.208;2023-05-07T05:04:43;13.60;99.90
21811;DHT22;11067;48.788;9.208;2023-05-07T05:07:08;13.50;99.90
21811;DHT22;11067;48.788;9.208;2023-05-07T05:09:34;13.40;99.90
21811;DHT22;11067;48.788;9.208;2023-05-07T05:11:59;13.40;99.90
21811;DHT22;11067;48.788;9.208;2023-05-07T05:14:25;13.30;99.90
21811;DHT22;11067;48.788;9.208;2023-05-07T05:16:51;13.30;99.90
21811;DHT22;11067;48.788;9.208;2023-05-07T05:19:16;13.30;99.90
21811;DHT22;11067;48.788;9.208;2023-05-07T05:21:42;13.30;99.90
21811;DHT22;11067;48.788;9.208;2023-05-07T05:24:08;13.40;99.90
21811;DHT22;11067;48.788;9.208;2023-05-07T05:26:34;13.50;99.90
21811;DHT22;11067;48.788;9.208;2023-05-07T05:28:59;13.60;99.90
21811;DHT22;11067;48.788;9.208;2023-05-07T05:31:25;13.80;99.90
21811;DHT22;11067;48.788;9.208;2023-05-07T05:33:50;14.00;99.90
21811;DHT22;11067;48.788;9.208;2023-05-07T05:36:16;14.50;99.90
21811;DHT22;11067;48.788;9.208;2023-05-07T05:38:42;15.10;99.90
21811;DHT22;11067;48.788;9.208;2023-05-07T05:41:07;15.50;99.90
21811;DHT22;11067;48.788;9.208;2023-05-07T05:43:33;16.40;99.90
21811;DHT22;11067;48.788;9.208;2023-05-07T05:45:59;16.90;99.90
21811;DHT22;11067;48.788;9.208;2023-05-07T05:48:25;16.90;99.90
21811;DHT22;11067;48.788;9.208;2023-05-07T05:50:51;17.40;99.90
21811;DHT22;11067;48.788;9.208;2023-05-07T05:53:16;17.20;99.90
21811;DHT22;11067;48.788;9.208;2023-05-07T05:55:42;16.60;99.90
21811;DHT22;11067;48.788;9.208;2023-05-07T05:58:09;15.90;99.90
21811;DHT22;11067;48.788;9.208;2023-05-07T06:00:34;15.90;99.90
21811;DHT22;11067;48.788;9.208;2023-05-07T06:03:00;15.70;99.90
21811;DHT22;11067;48.788;9.208;2023-05-07T06:05:26;15.80;99.90
21811;DHT22;11067;48.788;9.208;2023-05-07T06:07:51;16.30;99.90
21811;DHT22;11067;48.788;9.208;2023-05-07T06:10:17;16.60;99.90
21811;DHT22;11067;48.788;9.208;2023-05-07T06:12:43;17.00;99.90
21811;DHT22;11067;48.788;9.208;2023-05-07T06:15:09;16.60;99.90
21811;DHT22;11067;48.788;9.208;2023-05-07T06:17:34;16.20;99.90
21811;DHT22;11067;48.788;9.208;2023-05-07T06:20:00;16.00;99.90
21811;DHT22;11067;48.788;9.208;2023-05-07T06:22:25;15.70;99.90
21811;DHT22;11067;48.788;9.208;2023-05-07T06:24:51;15.60;99.90
21811;DHT22;11067;48.788;9.208;2023-05-07T06:27:16;15.60;99.90
21811;DHT22;11067;48.788;9.208;2023-05-07T06:29:42;15.70;99.90
21811;DHT22;11067;48.788;9.208;2023-05-07T06:32:08;15.40;99.90
21811;DHT22;11067;48.788;9.208;2023-05-07T06:34:34;15.40;99.90
21811;DHT22;11067;48.788;9.208;2023-05-07T06:37:00;15.50;99.90
21811;DHT22;11067;48.788;9.208;2023-05-07T06:39:26;15.30;99.90
21811;DHT22;11067;48.788;9.208;2023-05-07T06:41:52;15.50;99.90
21811;DHT22;11067;48.788;9.208;2023-05-07T06:44:17;15.60;99.90
21811;DHT22;11067;48.788;9.208;2023-05-07T06:46:43;15.80;99.90
21811;DHT22;11067;48.788;9.208;2023-05-07T06:49:08;16.10;99.90
21811;DHT22;11067;48.788;9.208;2023-05-07T06:51:34;16.00;99.90
21811;DHT22;11067;48.788;9.208;2023-05-07T06:53:59;16.20;99.90
21811;DHT22;11067;48.788;9.208;2023-05-07T06:56:25;16.60;99.90
21811;DHT22;11067;48.788;9.208;2023-05-07T06:58:51;16.80;99.90
21811;DHT22;11067;48.788;9.208;2023-05-07T07:01:16;16.60;99.90
21811;DHT22;11067;48.788;9.208;2023-05-07T07:03:42;16.90;99.90
21811;DHT22;11067;48.788;9.208;2023-05-07T07:06:07;17.20;99.90
21811;DHT22;11067;48.788;9.208;2023-05-07T07:08:33;17.00;99.90
21811;DHT22;11067;48.788;9.208;2023-05-07T07:10:59;17.00;99.90
21811;DHT22;11067;48.788;9.208;2023-05-07T07:13:25;17.00;99.90
21811;DHT22;11067;48.788;9.208;2023-05-07T07:15:51;17.00;99.90
21811;DHT22;11067;48.788;9.208;2023-05-07T07:18:17;17.20;99.90
21811;DHT22;11067;48.788;9.208;2023-05-07T07:20:42;17.30;99.90
21811;DHT22;11067;48.788;9.208;2023-05-07T07:23:09;17.10;99.90
21811;DHT22;11067;48.788;9.208;2023-05-07T07:25:35;17.30;99.90
21811;DHT22;11067;48.788;9.208;2023-05-07T07:28:01;17.60;99.90
21811;DHT22;11067;48.788;9.208;2023-05-07T07:30:26;17.90;99.90
21811;DHT22;11067;48.788;9.208;2023-05-07T07:32:52;18.00;99.90
21811;DHT22;11067;48.788;9.208;2023-05-07T07:35:18;18.00;99.90
21811;DHT22;11067;48.788;9.208;2023-05-07T07:37:43;18.10;99.90
21811;DHT22;11067;48.788;9.208;2023-05-07T07:40:09;18.50;99.90
21811;DHT22;11067;48.788;9.208;2023-05-07T07:42:35;18.60;99.90
21811;DHT22;11067;48.788;9.208;2023-05-07T07:45:01;18.80;99.90
21811;DHT22;11067;48.788;9.208;2023-05-07T07:47:26;19.20;99.90
21811;DHT22;11067;48.788;9.208;2023-05-07T07:49:52;19.40;99.90
21811;DHT22;11067;48.788;9.208;2023-05-07T07:52:18;19.80;99.90
21811;DHT22;11067;48.788;9.208;2023-05-07T07:54:44;19.60;99.90
21811;DHT22;11067;48.788;9.208;2023-05-07T07:57:10;19.60;99.90
21811;DHT22;11067;48.788;9.208;2023-05-07T07:59:35;19.50;99.90
21811;DHT22;11067;48.788;9.208;2023-05-07T08:02:01;19.70;99.90
21811;DHT22;11067;48.788;9.208;2023-05-07T08:04:26;20.20;99.90
21811;DHT22;11067;48.788;9.208;2023-05-07T08:06:52;20.10;99.90
21811;DHT22;11067;48.788;9.208;2023-05-07T08:09:19;19.90;99.90
21811;DHT22;11067;48.788;9.208;2023-05-07T08:11:45;20.00;99.90
21811;DHT22;11067;48.788;9.208;2023-05-07T08:14:11;19.80;99.90
21811;DHT22;11067;48.788;9.208;2023-05-07T08:16:36;20.20;99.90
21811;DHT22;11067;48.788;9.208;2023-05-07T08:19:02;20.30;99.90
21811;DHT22;11067;48.788;9.208;2023-05-07T08:21:28;20.40;99.90
21811;DHT22;11067;48.788;9.208;2023-05-07T08:23:54;20.60;99.90
21811;DHT22;11067;48.788;9.208;2023-05-07T08:26:19;20.60;99.90
21811;DHT22;11067;48.788;9.208;2023-05-07T08:28:45;21.00;99.90
21811;DHT22;11067;48.788;9.208;2023-05-07T08:31:11;21.00;99.90
21811;DHT22;11067;48.788;9.208;2023-05-07T08:33:36;20.90;99.90
21811;DHT22;11067;48.788;9.208;2023-05-07T08:36:04;21.30;99.90
21811;DHT22;11067;48.788;9.208;2023-05-07T08:38:29;21.50;99.90
21811;DHT22;11067;48.788;9.208;2023-05-07T08:40:55;21.50;99.90
21811;DHT22;11067;48.788;9.208;2023-05-07T08:43:21;21.20;99.90
21811;DHT22;11067;48.788;9.208;2023-05-07T08:45:49;21.20;99.90
21811;DHT22;11067;48.788;9.208;2023-05-07T08:48:16;21.30;99.90
21811;DHT22;11067;48.788;9.208;2023-05-07T08:50:42;21.10;99.90
21811;DHT22;11067;48.788;9.208;2023-05-07T08:53:07;21.50;99.90
21811;DHT22;11067;48.788;9.208;2023-05-07T08:55:33;21.90;99.90
21811;DHT22;11067;48.788;9.208;2023-05-07T08:57:59;22.10;99.90
21811;DHT22;11067;48.788;9.208;2023-05-07T09:00:25;22.20;99.90
21811;DHT22;11067;48.788;9.208;2023-05-07T09:02:51;22.00;99.90
21811;DHT22;11067;48.788;9.208;2023-05-07T09:05:17;21.90;99.90
21811;DHT22;11067;48.788;9.208;2023-05-07T09:07:42;22.20;99.90
21811;DHT22;11067;48.788;9.208;2023-05-07T09:10:08;22.10;99.90
21811;DHT22;11067;48.788;9.208;2023-05-07T09:12:34;22.10;99.90
21811;DHT22;11067;48.788;9.208;2023-05-07T09:15:03;22.20;99.90
21811;DHT22;11067;48.788;9.208;2023-05-07T09:17:29;22.40;99.90
21811;DHT22;11067;48.788;9.208;2023-05-07T09:19:54;22.40;99.90
21811;DHT22;11067;48.788;9.208;2023-05-07T09:22:20;22.30;99.90
21811;DHT22;11067;48.788;9.208;2023-05-07T09:24:50;22.30;99.90
21811;DHT22;11067;48.788;9.208;2023-05-07T09:27:17;22.50;99.90
21811;DHT22;11067;48.788;9.208;2023-05-07T09:29:43;22.60;99.90
21811;DHT22;11067;48.788;9.208;2023-05-07T09:32:10;22.90;99.90
21811;DHT22;11067;48.788;9.208;2023-05-07T09:34:36;23.00;99.90
21811;DHT22;11067;48.788;9.208;2023-05-07T09:37:03;23.00;99.90
21811;DHT22;11067;48.788;9.208;2023-05-07T09:39:42;23.30;99.90
21811;DHT22;11067;48.788;9.208;2023-05-07T09:42:07;23.40;99.90
21811;DHT22;11067;48.788;9.208;2023-05-07T09:44:34;23.50;99.90
21811;DHT22;11067;48.788;9.208;2023-05-07T09:47:00;23.10;99.90
21811;DHT22;11067;48.788;9.208;2023-05-07T09:49:29;23.10;99.90
21811;DHT22;11067;48.788;9.208;2023-05-07T09:51:56;23.30;99.90
21811;DHT22;11067;48.788;9.208;2023-05-07T09:54:24;23.30;99.90
21811;DHT22;11067;48.788;9.208;2023-05-07T09:56:52;23.60;99.90
21811;DHT22;11067;48.788;9.208;2023-05-07T09:59:18;23.60;99.90
21811;DHT22;11067;48.788;9.208;2023-05-07T10:01:45;23.50;99.90
21811;DHT22;11067;48.788;9.208;2023-05-07T10:04:11;23.80;99.90
21811;DHT22;11067;48.788;9.208;2023-05-07T10:06:38;23.70;99.90
21811;DHT22;11067;48.788;9.208;2023-05-07T10:09:04;23.80;99.90
21811;DHT22;11067;48.788;9.208;2023-05-07T10:11:34;23.80;99.90
21811;DHT22;11067;48.788;9.208;2023-05-07T10:14:01;23.90;99.90
21811;DHT22;11067;48.788;9.208;2023-05-07T10:16:29;23.70;99.90
21811;DHT22;11067;48.788;9.208;2023-05-07T10:18:56;23.90;99.90
21811;DHT22;11067;48.788;9.208;2023-05-07T10:21:23;23.80;99.90
21811;DHT22;11067;48.788;9.208;2023-05-07T10:23:51;23.60;99.90
21811;DHT22;11067;48.788;9.208;2023-05-07T10:26:22;23.90;99.90
21811;DHT22;11067;48.788;9.208;2023-05-07T10:28:56;24.30;99.90
21811;DHT22;11067;48.788;9.208;2023-05-07T10:31:47;24.50;99.90
21811;DHT22;11067;48.788;9.208;2023-05-07T10:34:18;24.20;99.90
21811;DHT22;11067;48.788;9.208;2023-05-07T10:36:45;24.20;99.90
21811;DHT22;11067;48.788;9.208;2023-05-07T10:39:11;24.20;99.90
21811;DHT22;11067;48.788;9.208;2023-05-07T10:41:38;24.10;99.90
21811;DHT22;11067;48.788;9.208;2023-05-07T10:44:04;24.30;99.90
21811;DHT22;11067;48.788;9.208;2023-05-07T10:46:29;24.30;99.90
21811;DHT22;11067;48.788;9.208;2023-05-07T10:51:34;24.80;99.90
21811;DHT22;11067;48.788;9.208;2023-05-07T10:56:39;24.40;99.90
21811;DHT22;11067;48.788;9.208;2023-05-07T10:59:37;24.70;99.90
21811;DHT22;11067;48.788;9.208;2023-05-07T11:02:07;24.50;99.90
21811;DHT22;11067;48.788;9.208;2023-05-07T11:04:35;24.60;99.90
21811;DHT22;11067;48.788;9.208;2023-05-07T11:09:53;24.70;99.90
21811;DHT22;11067;48.788;9.208;2023-05-07T11:15:08;25.10;99.90
21811;DHT22;11067;48.788;9.208;2023-05-07T11:17:34;25.70;99.90
21811;DHT22;11067;48.788;9.208;2023-05-07T11:20:16;26.00;99.90
21811;DHT22;11067;48.788;9.208;2023-05-07T11:22:42;26.10;99.90
21811;DHT22;11067;48.788;9.208;2023-05-07T11:25:08;26.00;99.90
21811;DHT22;11067;48.788;9.208;2023-05-07T11:27:33;26.00;99.90
21811;DHT22;11067;48.788;9.208;2023-05-07T11:29:59;25.70;99.90
21811;DHT22;11067;48.788;9.208;2023-05-07T11:32:28;25.20;99.90
21811;DHT22;11067;48.788;9.208;2023-05-07T11:34:55;25.20;99.90
21811;DHT22;11067;48.788;9.208;2023-05-07T11:37:22;25.00;99.90
21811;DHT22;11067;48.788;9.208;2023-05-07T11:39:48;24.50;99.90
21811;DHT22;11067;48.788;9.208;2023-05-07T11:42:30;24.80;99.90
21811;DHT22;11067;48.788;9.208;2023-05-07T11:44:56;25.30;99.90
21811;DHT22;11067;48.788;9.208;2023-05-07T11:47:22;24.90;99.90
21811;DHT22;11067;48.788;9.208;2023-05-07T11:49:50;24.60;99.90
21811;DHT22;11067;48.788;9.208;2023-05-07T11:52:17;24.20;99.90
21811;DHT22;11067;48.788;9.208;2023-05-07T11:54:52;23.90;99.90
21811;DHT22;11067;48.788;9.208;2023-05-07T11:57:18;23.60;99.90
21811;DHT22;11067;48.788;9.208;2023-05-07T11:59:44;23.50;99.90
21811;DHT22;11067;48.788;9.208;2023-05-07T12:02:10;23.50;99.90
21811;DHT22;11067;48.788;9.208;2023-05-07T12:04:37;23.60;99.90
21811;DHT22;11067;48.788;9.208;2023-05-07T12:07:03;23.70;99.90
21811;DHT22;11067;48.788;9.208;2023-05-07T12:09:28;23.70;99.90
21811;DHT22;11067;48.788;9.208;2023-05-07T12:11:55;23.70;99.90
21811;DHT22;11067;48.788;9.208;2023-05-07T12:14:21;23.70;99.90
21811;DHT22;11067;48.788;9.208;2023-05-07T12:16:47;23.40;99.90
21811;DHT22;11067;48.788;9.208;2023-05-07T12:19:13;23.20;99.90
21811;DHT22;11067;48.788;9.208;2023-05-07T12:21:40;22.90;99.90
21811;DHT22;11067;48.788;9.208;2023-05-07T12:24:06;22.40;99.90
21811;DHT22;11067;48.788;9.208;2023-05-07T12:26:31;21.80;99.90
21811;DHT22;11067;48.788;9.208;2023-05-07T12:28:57;21.40;99.90
21811;DHT22;11067;48.788;9.208;2023-05-07T12:31:25;21.10;99.90
21811;DHT22;11067;48.788;9.208;2023-05-07T12:33:51;20.60;99.90
21811;DHT22;11067;48.788;9.208;2023-05-07T12:36:17;20.40;99.90
21811;DHT22;11067;48.788;9.208;2023-05-07T12:38:42;20.20;99.90
21811;DHT22;11067;48.788;9.208;2023-05-07T12:41:09;19.60;99.90
21811;DHT22;11067;48.788;9.208;2023-05-07T12:43:35;19.30;99.90
21811;DHT22;11067;48.788;9.208;2023-05-07T12:46:04;19.20;99.90
21811;DHT22;11067;48.788;9.208;2023-05-07T12:48:29;19.20;99.90
21811;DHT22;11067;48.788;9.208;2023-05-07T12:50:56;19.10;99.90
21811;DHT22;11067;48.788;9.208;2023-05-07T12:53:26;18.90;99.90
21811;DHT22;11067;48.788;9.208;2023-05-07T12:55:54;18.50;99.90
21811;DHT22;11067;48.788;9.208;2023-05-07T12:58:28;18.30;99.90
21811;DHT22;11067;48.788;9.208;2023-05-07T13:00:54;18.00;99.90
21811;DHT22;11067;48.788;9.208;2023-05-07T13:03:34;17.80;99.90
21811;DHT22;11067;48.788;9.208;2023-05-07T13:06:02;17.90;99.90
21811;DHT22;11067;48.788;9.208;2023-05-07T13:08:36;17.90;99.90
21811;DHT22;11067;48.788;9.208;2023-05-07T13:11:03;18.00;99.90
21811;DHT22;11067;48.788;9.208;2023-05-07T13:13:33;18.00;99.90
21811;DHT22;11067;48.788;9.208;2023-05-07T13:15:59;17.80;99.90
21811;DHT22;11067;48.788;9.208;2023-05-07T13:18:26;17.60;99.90
21811;DHT22;11067;48.788;9.208;2023-05-07T13:20:52;17.10;99.90
21811;DHT22;11067;48.788;9.208;2023-05-07T13:23:18;16.60;99.90
21811;DHT22;11067;48.788;9.208;2023-05-07T13:25:43;16.30;99.90
21811;DHT22;11067;48.788;9.208;2023-05-07T13:28:09;16.20;99.90
21811;DHT22;11067;48.788;9.208;2023-05-07T13:30:35;16.20;99.90
21811;DHT22;11067;48.788;9.208;2023-05-07T13:33:00;16.20;99.90
21811;DHT22;11067;48.788;9.208;2023-05-07T13:35:26;16.10;99.90
21811;DHT22;11067;48.788;9.208;2023-05-07T13:37:52;15.90;99.90
21811;DHT22;11067;48.788;9.208;2023-05-07T13:40:18;15.80;99.90
21811;DHT22;11067;48.788;9.208;2023-05-07T13:42:44;15.60;99.90
21811;DHT22;11067;48.788;9.208;2023-05-07T13:45:10;15.90;99.90
21811;DHT22;11067;48.788;9.208;2023-05-07T13:47:36;16.00;99.90
21811;DHT22;11067;48.788;9.208;2023-05-07T13:50:01;16.20;99.90
21811;DHT22;11067;48.788;9.208;2023-05-07T13:52:27;16.30;99.90
21811;DHT22;11067;48.788;9.208;2023-05-07T13:54:52;16.30;99.90
21811;DHT22;11067;48.788;9.208;2023-05-07T13:57:18;16.30;99.90
21811;DHT22;11067;48.788;9.208;2023-05-07T13:59:44;16.40;99.90
21811;DHT22;11067;48.788;9.208;2023-05-07T14:02:09;16.30;99.90
21811;DHT22;11067;48.788;9.208;2023-05-07T14:04:37;16.30;99.90
21811;DHT22;11067;48.788;9.208;2023-05-07T14:07:03;16.40;99.90
21811;DHT22;11067;48.788;9.208;2023-05-07T14:09:28;16.30;99.90
21811;DHT22;11067;48.788;9.208;2023-05-07T14:11:54;16.40;99.90
21811;DHT22;11067;48.788;9.208;2023-05-07T14:14:19;16.30;99.90
21811;DHT22;11067;48.788;9.208;2023-05-07T14:16:45;16.40;99.90
21811;DHT22;11067;48.788;9.208;2023-05-07T14:19:13;16.40;99.90
21811;DHT22;11067;48.788;9.208;2023-05-07T14:21:39;16.40;99.90
21811;DHT22;11067;48.788;9.208;2023-05-07T14:24:07;16.30;99.90
21811;DHT22;11067;48.788;9.208;2023-05-07T14:26:34;16.40;99.90
21811;DHT22;11067;48.788;9.208;2023-05-07T14:29:00;16.40;99.90
21811;DHT22;11067;48.788;9.208;2023-05-07T14:31:25;16.40;99.90
21811;DHT22;11067;48.788;9.208;2023-05-07T14:33:51;16.30;99.90
21811;DHT22;11067;48.788;9.208;2023-05-07T14:36:17;16.30;99.90
21811;DHT22;11067;48.788;9.208;2023-05-07T14:38:45;16.40;99.90
21811;DHT22;11067;48.788;9.208;2023-05-07T14:41:11;16.50;99.90
21811;DHT22;11067;48.788;9.208;2023-05-07T14:43:36;16.40;99.90
21811;DHT22;11067;48.788;9.208;2023-05-07T14:46:02;16.50;99.90
21811;DHT22;11067;48.788;9.208;2023-05-07T14:48:27;16.50;99.90
21811;DHT22;11067;48.788;9.208;2023-05-07T14:50:53;16.50;99.90
21811;DHT22;11067;48.788;9.208;2023-05-07T14:53:19;16.50;99.90
21811;DHT22;11067;48.788;9.208;2023-05-07T14:55:44;16.50;99.90
21811;DHT22;11067;48.788;9.208;2023-05-07T14:58:11;16.40;99.90
21811;DHT22;11067;48.788;9.208;2023-05-07T15:00:36;16.30;99.90
21811;DHT22;11067;48.788;9.208;2023-05-07T15:03:07;16.40;99.90
21811;DHT22;11067;48.788;9.208;2023-05-07T15:05:33;16.40;99.90
21811;DHT22;11067;48.788;9.208;2023-05-07T15:07:58;16.20;99.90
21811;DHT22;11067;48.788;9.208;2023-05-07T15:10:24;16.30;99.90
21811;DHT22;11067;48.788;9.208;2023-05-07T15:12:50;16.30;99.90
21811;DHT22;11067;48.788;9.208;2023-05-07T15:15:16;16.70;99.90
21811;DHT22;11067;48.788;9.208;2023-05-07T15:17:41;16.80;99.90
21811;DHT22;11067;48.788;9.208;2023-05-07T15:20:07;16.80;99.90
21811;DHT22;11067;48.788;9.208;2023-05-07T15:22:33;16.80;99.90
21811;DHT22;11067;48.788;9.208;2023-05-07T15:24:59;16.60;99.90
21811;DHT22;11067;48.788;9.208;2023-05-07T15:27:31;16.40;99.90
21811;DHT22;11067;48.788;9.208;2023-05-07T15:29:57;16.30;99.90
21811;DHT22;11067;48.788;9.208;2023-05-07T15:32:23;16.30;99.90
21811;DHT22;11067;48.788;9.208;2023-05-07T15:34:48;16.50;99.90